createdAt,value
2018-06-02T00:03:05.658Z,16.80
2018-06-02T00:08:08.057Z,16.80
2018-06-02T00:13:11.729Z,16.70
2018-06-02T00:18:14.331Z,16.70
2018-06-02T00:23:21.117Z,16.60
2018-06-02T00:28:23.012Z,16.50
2018-06-02T00:33:25.207Z,16.60
2018-06-02T00:38:26.844Z,16.60
2018-06-02T00:43:28.635Z,16.80
2018-06-02T00:48:30.184Z,16.80
2018-06-02T00:53:33.383Z,16.70
2018-06-02T00:58:36.142Z,16.50
2018-06-02T01:03:38.991Z,16.40
2018-06-02T01:08:40.818Z,16.40
2018-06-02T01:13:42.432Z,16.50
2018-06-02T01:18:44.769Z,16.50
2018-06-02T01:23:47.114Z,16.60
2018-06-02T01:28:48.732Z,16.50
2018-06-02T01:33:50.347Z,16.70
2018-06-02T01:38:52.479Z,16.70
2018-06-02T01:43:54.358Z,16.70
2018-06-02T01:48:55.975Z,16.60
2018-06-02T01:53:57.531Z,16.50
2018-06-02T01:58:59.248Z,16.40
2018-06-02T02:04:01.827Z,16.30
2018-06-02T02:09:05.565Z,16.30
2018-06-02T02:14:08.020Z,16.30
2018-06-02T02:19:09.643Z,16.20
2018-06-02T02:24:12.900Z,16.20
2018-06-02T02:29:15.774Z,16.10
2018-06-02T02:34:18.267Z,15.90
2018-06-02T02:39:19.777Z,15.90
2018-06-02T02:44:21.750Z,15.70
2018-06-02T02:49:25.437Z,15.50
2018-06-02T03:09:53.172Z,16.20
2018-06-02T03:14:55.003Z,16.00
2018-06-02T03:19:56.692Z,15.60
2018-06-02T03:24:58.175Z,15.30
2018-06-02T03:29:59.932Z,15.60
2018-06-02T03:35:02.434Z,16.00
2018-06-02T03:40:04.181Z,15.90
2018-06-02T03:45:05.867Z,16.00
2018-06-02T03:50:07.403Z,15.80
2018-06-02T03:55:09.093Z,15.60
2018-06-02T04:00:11.608Z,16.00
2018-06-02T04:05:22.365Z,15.90
2018-06-02T04:10:26.447Z,16.80
2018-06-02T04:15:28.382Z,16.80
2018-06-02T04:20:30.789Z,18.30
2018-06-02T04:25:32.587Z,18.20
2018-06-02T04:30:34.207Z,20.00
2018-06-02T04:35:36.635Z,19.50
2018-06-02T04:40:38.287Z,19.50
2018-06-02T04:45:40.355Z,19.20
2018-06-02T04:50:42.651Z,19.10
2018-06-02T04:55:44.305Z,19.00
2018-06-02T05:00:46.733Z,19.10
2018-06-02T05:05:48.368Z,19.00
2018-06-02T05:10:50.081Z,19.50
2018-06-02T05:15:51.752Z,22.00
2018-06-02T05:20:53.488Z,24.50
2018-06-02T05:25:55.038Z,25.30
2018-06-02T05:30:57.347Z,25.50
2018-06-02T05:35:58.878Z,25.40
2018-06-02T05:41:01.235Z,23.60
2018-06-02T05:46:02.845Z,23.60
2018-06-02T05:51:05.144Z,22.50
2018-06-02T05:56:06.671Z,22.50
2018-06-02T06:01:08.212Z,22.30
2018-06-02T06:06:09.862Z,21.90
2018-06-02T06:11:11.326Z,21.50
2018-06-02T06:16:12.833Z,21.50
2018-06-02T06:21:14.352Z,21.70
2018-06-02T06:26:16.052Z,22.00
2018-06-02T06:31:17.604Z,22.30
2018-06-02T06:36:19.113Z,22.90
2018-06-02T06:41:20.762Z,23.00
2018-06-02T06:46:22.321Z,22.30
2018-06-02T06:51:23.919Z,22.50
2018-06-02T06:56:25.475Z,22.60
2018-06-02T07:01:27.020Z,23.00
2018-06-02T07:06:28.580Z,23.50
2018-06-02T07:11:30.164Z,24.40
2018-06-02T07:16:31.721Z,26.40
2018-06-02T07:21:33.300Z,28.60
2018-06-02T07:26:34.833Z,29.40
2018-06-02T07:31:36.361Z,30.10
2018-06-02T07:36:37.895Z,29.10
2018-06-02T07:41:39.458Z,27.90
2018-06-02T07:46:41.120Z,28.30
2018-06-02T07:51:42.724Z,28.90
2018-06-02T07:56:44.246Z,29.20
2018-06-02T08:01:45.787Z,29.30
2018-06-02T08:06:48.061Z,28.20
2018-06-02T08:11:50.455Z,26.80
2018-06-02T08:16:52.784Z,27.60
2018-06-02T08:21:54.367Z,27.50
2018-06-02T08:26:55.911Z,28.20
2018-06-02T08:31:57.458Z,27.10
2018-06-02T08:36:59.156Z,26.50
2018-06-02T08:42:00.933Z,26.70
2018-06-02T08:47:02.685Z,27.30
2018-06-02T08:52:05.511Z,26.50
2018-06-02T08:57:09.429Z,26.70
2018-06-02T09:02:11.053Z,28.10
2018-06-02T09:07:13.420Z,27.30
2018-06-02T09:12:16.759Z,26.60
2018-06-02T09:17:18.454Z,26.50
2018-06-02T09:22:20.612Z,27.60
2018-06-02T09:27:22.263Z,28.70
2018-06-02T09:32:24.816Z,29.30
2018-06-02T09:37:26.634Z,29.20
2018-06-02T09:42:28.481Z,29.10
2018-06-02T09:47:31.011Z,29.50
2018-06-02T09:52:33.782Z,29.00
2018-06-02T09:57:36.486Z,28.30
2018-06-02T10:02:39.217Z,27.80
2018-06-02T10:07:42.268Z,27.80
2018-06-02T10:12:45.570Z,27.60
2018-06-02T10:17:47.971Z,27.50
2018-06-02T10:22:50.585Z,27.10
2018-06-02T10:27:52.315Z,27.10
2018-06-02T10:32:54.183Z,27.70
2018-06-02T10:37:56.829Z,27.50
2018-06-02T10:42:59.006Z,27.50
2018-06-02T10:48:00.896Z,27.00
2018-06-02T10:53:02.561Z,26.50
2018-06-02T10:58:05.916Z,26.60
2018-06-02T11:03:09.223Z,29.20
2018-06-02T11:08:11.017Z,29.60
2018-06-02T11:13:13.449Z,30.20
2018-06-02T11:18:15.938Z,30.10
2018-06-02T11:23:19.935Z,31.90
2018-06-02T11:28:21.881Z,31.80
2018-06-02T11:33:23.856Z,30.00
2018-06-02T11:38:25.428Z,28.80
2018-06-02T11:43:27.361Z,28.20
2018-06-02T11:48:30.855Z,27.70
2018-06-02T11:53:32.506Z,27.50
2018-06-02T11:58:35.088Z,27.40
2018-06-02T12:03:36.737Z,27.30
2018-06-02T12:08:38.954Z,27.40
2018-06-02T12:13:48.645Z,27.40
2018-06-02T12:18:52.450Z,27.30
2018-06-02T12:23:54.936Z,27.30
2018-06-02T12:28:56.800Z,27.80
2018-06-02T12:33:59.454Z,27.70
2018-06-02T12:39:01.252Z,27.60
2018-06-02T12:44:03.263Z,28.10
2018-06-02T12:49:07.674Z,28.20
2018-06-02T12:54:09.742Z,28.00
2018-06-02T12:59:11.650Z,27.70
2018-06-02T13:04:14.250Z,27.90
2018-06-02T13:09:16.082Z,27.50
2018-06-02T13:14:18.097Z,27.80
2018-06-02T13:19:21.533Z,27.60
2018-06-02T13:24:25.553Z,27.30
2018-06-02T13:29:27.368Z,27.70
2018-06-02T13:34:29.232Z,28.00
2018-06-02T13:39:31.380Z,27.80
2018-06-02T13:44:33.353Z,27.70
2018-06-02T13:49:35.264Z,27.80
2018-06-02T13:54:37.097Z,28.00
2018-06-02T13:59:39.792Z,28.30
2018-06-02T14:04:41.551Z,28.00
2018-06-02T14:09:44.983Z,28.10
2018-06-02T14:14:48.535Z,27.90
2018-06-02T14:19:50.775Z,28.10
2018-06-02T14:24:54.573Z,28.30
2018-06-02T14:29:57.843Z,28.60
2018-06-02T14:35:01.181Z,28.50
2018-06-02T14:40:04.693Z,28.40
2018-06-02T14:45:07.732Z,27.70
2018-06-02T14:50:11.763Z,27.70
2018-06-02T14:55:14.323Z,27.20
2018-06-02T15:00:17.884Z,27.40
2018-06-02T15:05:19.724Z,27.10
2018-06-02T15:10:21.989Z,27.60
2018-06-02T15:15:24.106Z,27.60
2018-06-02T15:20:26.809Z,28.20
2018-06-02T15:25:29.038Z,28.50
2018-06-02T15:30:31.149Z,28.50
2018-06-02T15:35:34.007Z,28.70
2018-06-02T15:40:35.988Z,28.30
2018-06-02T15:45:38.484Z,27.50
2018-06-02T15:50:41.315Z,27.30
2018-06-02T15:55:45.251Z,27.10
2018-06-02T16:00:47.130Z,26.80
2018-06-02T16:05:49.312Z,26.50
2018-06-02T16:10:52.070Z,26.50
2018-06-02T16:15:54.616Z,26.30
2018-06-02T16:20:56.803Z,26.20
2018-06-02T16:25:59.567Z,26.20
2018-06-02T16:31:01.557Z,26.20
2018-06-02T16:36:03.891Z,26.00
2018-06-02T16:41:06.185Z,26.00
2018-06-02T16:46:10.129Z,26.00
2018-06-02T16:51:12.258Z,25.80
2018-06-02T16:56:14.253Z,25.70
2018-06-02T17:01:16.956Z,25.40
2018-06-02T17:06:19.154Z,25.10
2018-06-02T17:11:22.988Z,25.00
2018-06-02T17:16:26.386Z,24.90
2018-06-02T17:21:31.038Z,24.90
2018-06-02T17:26:34.028Z,24.70
2018-06-02T17:31:36.588Z,24.70
2018-06-02T17:36:41.807Z,24.60
2018-06-02T17:41:47.687Z,24.30
2018-06-02T17:58:01.131Z,24.10
2018-06-02T18:03:02.703Z,24.10
2018-06-02T18:08:04.283Z,24.00
2018-06-02T18:13:05.927Z,24.10
2018-06-02T18:18:07.724Z,23.80
2018-06-02T18:23:09.253Z,23.30
2018-06-02T18:28:10.813Z,23.10
2018-06-02T18:33:12.380Z,22.90
2018-06-02T18:38:21.128Z,22.70
2018-06-02T18:43:22.717Z,22.40
2018-06-02T18:48:24.189Z,22.30
2018-06-02T18:53:25.726Z,22.10
2018-06-02T18:58:27.305Z,22.10
2018-06-02T19:03:28.876Z,22.00
2018-06-02T19:08:30.563Z,21.90
2018-06-02T19:13:32.098Z,21.80
2018-06-02T19:18:33.638Z,21.50
2018-06-02T19:23:36.267Z,21.20
2018-06-02T19:28:37.874Z,21.10
2018-06-02T19:33:39.481Z,21.00
2018-06-02T19:38:40.961Z,20.70
2018-06-02T19:43:42.487Z,20.70
2018-06-02T19:48:44.147Z,20.60
2018-06-02T19:53:45.795Z,20.50
2018-06-02T19:58:47.380Z,20.30
2018-06-02T20:03:48.966Z,20.30
2018-06-02T20:08:50.521Z,20.40
2018-06-02T20:13:52.274Z,20.40
2018-06-02T20:18:53.817Z,20.20
2018-06-02T20:23:55.392Z,20.10
2018-06-02T20:28:56.960Z,20.10
2018-06-02T20:33:58.529Z,19.90
2018-06-02T20:39:00.045Z,19.70
2018-06-02T20:44:01.599Z,19.60
2018-06-02T20:49:03.143Z,19.60
2018-06-02T20:54:04.907Z,19.80
2018-06-02T20:59:06.445Z,19.70
2018-06-02T21:04:08.728Z,19.80
2018-06-02T21:09:11.004Z,19.80
2018-06-02T21:14:20.252Z,19.80
2018-06-02T21:19:22.637Z,19.70
2018-06-02T21:24:24.931Z,19.60
2018-06-02T21:29:27.243Z,19.20
2018-06-02T21:34:28.912Z,19.10
2018-06-02T21:39:30.462Z,18.70
2018-06-02T21:44:32.023Z,18.50
2018-06-02T21:49:34.324Z,18.40
2018-06-02T21:54:36.058Z,18.30
2018-06-02T21:59:37.643Z,18.30
2018-06-02T22:04:39.905Z,18.10
2018-06-02T22:09:41.432Z,18.00
2018-06-02T22:14:43.009Z,18.00
2018-06-02T22:19:44.561Z,18.10
2018-06-02T22:24:46.095Z,18.10
2018-06-02T22:29:48.381Z,18.10
2018-06-02T22:34:50.670Z,18.10
2018-06-02T22:39:52.966Z,18.10
2018-06-02T22:44:54.588Z,18.00
2018-06-02T22:49:56.303Z,18.00
2018-06-02T22:54:57.835Z,17.80
2018-06-02T22:59:59.287Z,17.60
2018-06-02T23:05:00.781Z,17.60
2018-06-02T23:10:02.477Z,17.60
2018-06-02T23:15:04.792Z,17.50
2018-06-02T23:20:06.295Z,17.50
2018-06-02T23:25:07.925Z,17.50
2018-06-02T23:30:09.442Z,17.20
2018-06-02T23:35:11.128Z,17.10
2018-06-02T23:40:13.571Z,17.20
2018-06-02T23:45:15.449Z,17.10
2018-06-02T23:50:17.036Z,17.20
2018-06-02T23:55:18.537Z,17.20
